Chincha Alta, Peru
Current Conditions -  °F | °C
As of 10:00 PM on Tuesday 25 Nov 2014 (Local Time) from SPSO Reporting Station
Few Clouds Few Clouds  
Wind Chill: 64°   Ceiling: Unl
Heat Index: 64°   Visibility: 6mi
Dew Point: 61°   Wind: 14mph
Humidity: 88%   Direction: 220°SW
Pressure: 29.94"   Gusts: NA
Location:  13.42°S, 76.14°W
Report Text: SPSO 260300Z 22012KT 9999 FEW020 18/16 Q1014 RMK PP000
Loading
Personal Weather Stations






























Interactive Weather Map New forecast layout! Learn more

10-Day Weather Forecast

Advertisements
Track Severe Weather on mobile